createdAt,value
2018-07-17T00:01:21.069Z,98055.45
2018-07-17T00:03:50.631Z,98054.77
2018-07-17T00:06:19.559Z,98049.80
2018-07-17T00:08:48.721Z,98050.26
2018-07-17T00:11:17.413Z,98044.13
2018-07-17T00:13:48.399Z,98048.02
2018-07-17T00:16:17.573Z,98051.33
2018-07-17T00:18:46.170Z,98047.66
2018-07-17T00:21:15.336Z,98045.84
2018-07-17T00:23:43.946Z,98047.97
2018-07-17T00:26:12.580Z,98053.09
2018-07-17T00:28:41.125Z,98055.28
2018-07-17T00:31:09.922Z,98052.23
2018-07-17T00:33:38.588Z,98055.81
2018-07-17T00:36:07.827Z,98059.10
2018-07-17T00:38:36.416Z,98053.20
2018-07-17T00:41:05.007Z,98057.85
2018-07-17T00:43:33.625Z,98055.60
2018-07-17T00:46:02.328Z,98050.70
2018-07-17T00:48:30.972Z,98048.20
2018-07-17T00:50:59.625Z,98051.19
2018-07-17T00:53:28.280Z,98055.94
2018-07-17T00:55:57.060Z,98056.78
2018-07-17T00:58:25.832Z,98058.68
2018-07-17T01:00:53.508Z,98059.72
2018-07-17T01:03:27.174Z,98052.50
2018-07-17T01:06:00.848Z,98052.45
2018-07-17T01:08:34.722Z,98052.86
2018-07-17T01:11:08.359Z,98050.75
2018-07-17T01:13:44.470Z,98048.45
2018-07-17T01:16:13.165Z,98043.23
2018-07-17T01:18:41.936Z,98046.31
2018-07-17T01:21:10.537Z,98048.72
2018-07-17T01:23:39.252Z,98051.02
2018-07-17T01:26:07.998Z,98042.10
2018-07-17T01:28:36.886Z,98044.91
2018-07-17T01:31:05.815Z,98048.21
2018-07-17T01:33:34.475Z,98048.33
2018-07-17T01:36:03.295Z,98053.04
2018-07-17T01:38:32.019Z,98054.84
2018-07-17T01:41:00.488Z,98045.38
2018-07-17T01:43:29.172Z,98045.97
2018-07-17T01:45:57.889Z,98054.96
2018-07-17T01:48:26.619Z,98043.64
2018-07-17T01:50:55.201Z,98057.18
2018-07-17T01:53:23.841Z,98047.08
2018-07-17T01:55:52.593Z,98052.09
2018-07-17T01:58:21.275Z,98055.02
2018-07-17T02:00:50.042Z,98058.87
2018-07-17T02:03:19.354Z,98059.06
2018-07-17T02:05:47.956Z,98055.63
2018-07-17T02:08:16.798Z,98053.14
2018-07-17T02:10:45.373Z,98056.25
2018-07-17T02:13:14.286Z,98055.63
2018-07-17T02:15:44.104Z,98050.66
2018-07-17T02:18:12.943Z,98052.59
2018-07-17T02:20:41.595Z,98053.41
2018-07-17T02:23:10.319Z,98049.00
2018-07-17T02:25:39.143Z,98057.22
2018-07-17T02:28:07.882Z,98053.78
2018-07-17T02:30:36.685Z,98058.33
2018-07-17T02:33:05.656Z,98061.28
2018-07-17T02:35:34.460Z,98055.06
2018-07-17T02:38:03.209Z,98062.69
2018-07-17T02:40:32.041Z,98058.13
2018-07-17T02:43:00.764Z,98058.31
2018-07-17T02:45:29.459Z,98065.11
2018-07-17T02:47:58.060Z,98065.67
2018-07-17T02:50:26.628Z,98065.90
2018-07-17T02:52:55.478Z,98065.45
2018-07-17T02:55:24.094Z,98070.63
2018-07-17T02:57:52.783Z,98069.94
2018-07-17T03:00:21.503Z,98067.81
2018-07-17T03:02:50.240Z,98071.81
2018-07-17T03:05:19.414Z,98071.72
2018-07-17T03:07:49.006Z,98076.27
2018-07-17T03:10:17.639Z,98069.70
2018-07-17T03:12:48.282Z,98075.79
2018-07-17T03:15:17.166Z,98074.10
2018-07-17T03:17:46.181Z,98078.45
2018-07-17T03:20:15.005Z,98076.99
2018-07-17T03:22:43.813Z,98079.94
2018-07-17T03:25:12.630Z,98093.55
2018-07-17T03:27:41.611Z,98096.93
2018-07-17T03:30:10.302Z,98095.83
2018-07-17T03:32:39.153Z,98091.45
2018-07-17T03:35:08.374Z,98094.66
2018-07-17T03:37:37.099Z,98097.93
2018-07-17T03:40:06.055Z,98104.69
2018-07-17T03:42:34.686Z,98100.70
2018-07-17T03:45:03.465Z,98108.45
2018-07-17T03:47:32.148Z,98112.34
2018-07-17T03:50:02.441Z,98106.00
2018-07-17T03:52:31.466Z,98099.92
2018-07-17T03:55:00.185Z,98108.75
2018-07-17T03:57:29.474Z,98099.15
2018-07-17T03:59:58.344Z,98100.98
2018-07-17T04:02:27.181Z,98101.47
2018-07-17T04:04:56.145Z,98106.03
2018-07-17T04:07:24.898Z,98112.91
2018-07-17T04:09:53.607Z,98108.46
2018-07-17T04:12:22.259Z,98107.09
2018-07-17T04:14:50.844Z,98103.49
2018-07-17T04:17:19.600Z,98106.48
2018-07-17T04:19:50.754Z,98117.14
2018-07-17T04:22:19.882Z,98116.19
2018-07-17T04:24:48.522Z,98123.56
2018-07-17T04:27:17.432Z,98128.16
2018-07-17T04:29:46.292Z,98132.72
2018-07-17T04:32:15.623Z,98135.23
2018-07-17T04:34:44.529Z,98126.91
2018-07-17T04:37:13.251Z,98135.41
2018-07-17T04:39:41.829Z,98134.94
2018-07-17T04:42:10.541Z,98137.62
2018-07-17T04:44:39.250Z,98133.27
2018-07-17T04:47:07.843Z,98130.09
2018-07-17T04:49:36.573Z,98137.83
2018-07-17T04:52:05.375Z,98138.06
2018-07-17T04:54:33.990Z,98143.91
2018-07-17T04:57:02.587Z,98143.80
2018-07-17T04:59:31.247Z,98147.46
2018-07-17T05:01:59.864Z,98147.38
2018-07-17T05:04:28.716Z,98141.72
2018-07-17T05:06:57.415Z,98143.61
2018-07-17T05:09:26.120Z,98151.88
2018-07-17T05:11:55.102Z,98147.16
2018-07-17T05:14:24.716Z,98150.20
2018-07-17T05:16:53.401Z,98152.67
2018-07-17T05:19:22.138Z,98154.30
2018-07-17T05:21:50.908Z,98156.87
2018-07-17T05:24:19.687Z,98157.64
2018-07-17T05:26:48.323Z,98159.91
2018-07-17T05:29:16.966Z,98164.66
2018-07-17T05:31:45.664Z,98166.15
2018-07-17T05:34:14.406Z,98166.31
2018-07-17T05:36:43.088Z,98168.32
2018-07-17T05:39:11.787Z,98167.52
2018-07-17T05:41:40.372Z,98164.49
2018-07-17T05:44:09.044Z,98165.02
2018-07-17T05:46:37.800Z,98169.97
2018-07-17T05:49:06.613Z,98168.34
2018-07-17T05:51:35.307Z,98166.43
2018-07-17T05:54:04.209Z,98169.69
2018-07-17T05:56:33.175Z,98166.76
2018-07-17T05:59:01.875Z,98169.95
2018-07-17T06:01:30.454Z,98168.66
2018-07-17T06:03:59.142Z,98171.14
2018-07-17T06:06:27.823Z,98164.16
2018-07-17T06:08:56.546Z,98166.61
2018-07-17T06:11:25.308Z,98163.93
2018-07-17T06:13:54.172Z,98170.39
2018-07-17T06:16:22.962Z,98172.64
2018-07-17T06:18:51.809Z,98172.32
2018-07-17T06:21:20.411Z,98168.82
2018-07-17T06:23:49.068Z,98173.21
2018-07-17T06:26:17.605Z,98173.48
2018-07-17T06:28:46.386Z,98167.61
2018-07-17T06:31:15.047Z,98165.30
2018-07-17T06:33:43.760Z,98165.48
2018-07-17T06:36:12.518Z,98158.52
2018-07-17T06:38:41.121Z,98164.77
2018-07-17T06:41:09.723Z,98164.92
2018-07-17T06:43:38.468Z,98167.66
2018-07-17T06:46:07.091Z,98165.64
2018-07-17T06:48:35.804Z,98169.19
2018-07-17T06:51:04.471Z,98169.69
2018-07-17T06:53:33.132Z,98174.86
2018-07-17T06:56:01.987Z,98172.86
2018-07-17T06:58:30.712Z,98170.35
2018-07-17T07:00:59.446Z,98169.77
2018-07-17T07:03:28.253Z,98169.31
2018-07-17T07:05:56.947Z,98172.56
2018-07-17T07:08:25.565Z,98172.73
2018-07-17T07:10:54.240Z,98173.28
2018-07-17T07:13:22.865Z,98178.00
2018-07-17T07:15:51.496Z,98172.13
2018-07-17T07:18:20.281Z,98178.86
2018-07-17T07:20:49.029Z,98181.70
2018-07-17T07:23:17.775Z,98173.80
2018-07-17T07:25:46.516Z,98176.98
2018-07-17T07:28:15.144Z,98180.38
2018-07-17T07:30:43.702Z,98178.13
2018-07-17T07:33:12.608Z,98174.41
2018-07-17T07:35:41.243Z,98174.73
2018-07-17T07:38:09.942Z,98170.96
2018-07-17T07:40:38.627Z,98179.50
2018-07-17T07:43:07.312Z,98168.83
2018-07-17T07:45:35.877Z,98170.39
2018-07-17T07:48:04.482Z,98166.19
2018-07-17T07:50:33.096Z,98170.89
2018-07-17T07:53:01.957Z,98167.34
2018-07-17T07:55:30.728Z,98171.38
2018-07-17T07:57:59.473Z,98169.19
2018-07-17T08:00:28.249Z,98174.16
2018-07-17T08:02:57.066Z,98173.06
2018-07-17T08:05:25.838Z,98168.22
2018-07-17T08:07:54.778Z,98167.14
2018-07-17T08:10:23.638Z,98168.62
2018-07-17T08:12:52.860Z,98169.34
2018-07-17T08:15:21.756Z,98170.69
2018-07-17T08:17:50.496Z,98175.52
2018-07-17T08:20:19.269Z,98173.33
2018-07-17T08:22:47.980Z,98179.16
2018-07-17T08:25:16.819Z,98180.81
2018-07-17T08:27:45.753Z,98177.30
2018-07-17T08:30:14.823Z,98185.45
2018-07-17T08:32:43.899Z,98180.34
2018-07-17T08:35:12.879Z,98179.27
2018-07-17T08:37:41.491Z,98180.55
2018-07-17T08:40:10.192Z,98185.23
2018-07-17T08:42:39.012Z,98192.56
2018-07-17T08:45:07.639Z,98186.76
2018-07-17T08:47:36.319Z,98180.20
2018-07-17T08:50:05.036Z,98185.55
2018-07-17T08:52:33.896Z,98185.92
2018-07-17T08:55:05.216Z,98187.84
2018-07-17T08:57:33.903Z,98189.52
2018-07-17T09:00:08.151Z,98186.09
2018-07-17T09:02:36.724Z,98187.45
2018-07-17T09:05:05.822Z,98188.17
2018-07-17T09:07:38.157Z,98192.53
2018-07-17T09:10:09.107Z,98191.18
2018-07-17T09:12:37.875Z,98186.14
2018-07-17T09:15:06.678Z,98191.52
2018-07-17T09:17:35.457Z,98190.70
2018-07-17T09:20:04.339Z,98185.20
2018-07-17T09:22:34.244Z,98191.58
2018-07-17T09:25:04.187Z,98192.81
2018-07-17T09:27:33.005Z,98191.22
2018-07-17T09:30:01.605Z,98196.45
2018-07-17T09:32:30.228Z,98190.31
2018-07-17T09:34:58.950Z,98200.23
2018-07-17T09:37:27.568Z,98193.34
2018-07-17T09:39:56.192Z,98198.28
2018-07-17T09:42:25.569Z,98197.84
2018-07-17T09:44:54.955Z,98193.36
2018-07-17T09:47:23.622Z,98198.95
2018-07-17T09:49:52.685Z,98202.66
2018-07-17T09:52:21.445Z,98200.84
2018-07-17T09:54:50.158Z,98198.90
2018-07-17T09:57:19.151Z,98194.97
2018-07-17T09:59:50.925Z,98190.55
2018-07-17T10:02:24.698Z,98190.90
2018-07-17T10:04:53.428Z,98186.41
2018-07-17T10:07:22.198Z,98187.66
2018-07-17T10:09:50.744Z,98183.53
2018-07-17T10:12:19.344Z,98180.55
2018-07-17T10:14:48.091Z,98180.67
2018-07-17T10:17:16.717Z,98180.20
2018-07-17T10:19:45.311Z,98180.80
2018-07-17T10:22:13.996Z,98180.30
2018-07-17T10:24:42.766Z,98187.62
2018-07-17T10:27:11.474Z,98186.54
2018-07-17T10:29:40.103Z,98177.56
2018-07-17T10:32:08.918Z,98172.89
2018-07-17T10:34:37.554Z,98164.31
2018-07-17T10:37:06.464Z,98167.08
2018-07-17T10:39:35.093Z,98174.67
2018-07-17T10:42:03.753Z,98185.36
2018-07-17T10:44:32.549Z,98179.16
2018-07-17T10:47:01.146Z,98177.80
2018-07-17T10:49:29.726Z,98174.29
2018-07-17T10:51:58.330Z,98177.14
2018-07-17T10:54:27.002Z,98178.38
2018-07-17T10:56:55.696Z,98167.98
2018-07-17T10:59:24.362Z,98162.70
2018-07-17T11:01:53.433Z,98153.69
2018-07-17T11:04:22.057Z,98155.66
2018-07-17T11:06:50.824Z,98157.86
2018-07-17T11:09:19.499Z,98155.08
2018-07-17T11:11:48.165Z,98156.98
2018-07-17T11:14:16.760Z,98159.91
2018-07-17T11:16:45.447Z,98151.68
2018-07-17T11:19:13.991Z,98155.87
2018-07-17T11:21:42.643Z,98148.20
2018-07-17T11:24:11.265Z,98145.80
2018-07-17T11:26:40.008Z,98139.40
2018-07-17T11:29:08.659Z,98140.22
2018-07-17T11:31:37.224Z,98140.14
2018-07-17T11:34:05.892Z,98135.09
2018-07-17T11:36:34.776Z,98147.88
2018-07-17T11:39:03.845Z,98139.66
2018-07-17T11:41:32.665Z,98132.63
2018-07-17T11:44:01.362Z,98129.84
2018-07-17T11:46:29.968Z,98127.74
2018-07-17T11:48:58.601Z,98132.62
2018-07-17T11:51:27.345Z,98130.16
2018-07-17T11:53:56.013Z,98131.22
2018-07-17T11:56:24.687Z,98123.89
2018-07-17T11:58:53.272Z,98117.77
2018-07-17T12:01:21.905Z,98121.94
2018-07-17T12:03:50.560Z,98125.72
2018-07-17T12:06:20.219Z,98120.55
2018-07-17T12:08:48.798Z,98118.29
2018-07-17T12:11:18.972Z,98110.75
2018-07-17T12:13:47.606Z,98117.47
2018-07-17T12:17:54.692Z,98116.09
2018-07-17T12:20:25.065Z,98120.66
2018-07-17T12:22:53.460Z,98114.31
2018-07-17T12:25:22.090Z,98114.62
2018-07-17T12:27:50.732Z,98120.40
2018-07-17T12:30:19.366Z,98103.64
2018-07-17T12:32:48.079Z,98114.52
2018-07-17T12:35:16.811Z,98112.77
2018-07-17T12:37:45.575Z,98115.80
2018-07-17T12:40:14.214Z,98116.08
2018-07-17T12:42:42.984Z,98111.21
2018-07-17T12:45:11.631Z,98107.20
2018-07-17T12:47:40.333Z,98115.84
2018-07-17T12:50:09.199Z,98118.73
2018-07-17T12:52:37.878Z,98114.17
2018-07-17T12:55:06.777Z,98119.27
2018-07-17T12:57:35.676Z,98122.52
2018-07-17T13:00:04.447Z,98116.89
2018-07-17T13:02:33.028Z,98120.77
2018-07-17T13:05:01.827Z,98117.68
2018-07-17T13:07:30.724Z,98119.70
2018-07-17T13:09:59.508Z,98128.22
2018-07-17T13:12:28.156Z,98120.99
2018-07-17T13:14:56.950Z,98114.39
2018-07-17T13:17:25.510Z,98114.31
2018-07-17T13:19:54.543Z,98113.84
2018-07-17T13:22:23.486Z,98117.70
2018-07-17T13:24:52.332Z,98117.25
2018-07-17T13:27:21.035Z,98126.27
2018-07-17T13:29:49.596Z,98141.83
2018-07-17T13:32:18.344Z,98146.93
2018-07-17T13:34:47.406Z,98148.16
2018-07-17T13:37:16.263Z,98157.78
2018-07-17T13:39:44.957Z,98154.66
2018-07-17T13:42:13.593Z,98168.33
2018-07-17T13:44:42.533Z,98164.48
2018-07-17T13:47:11.031Z,98161.65
2018-07-17T13:49:41.467Z,98158.84
2018-07-17T13:52:10.178Z,98156.66
2018-07-17T13:54:41.071Z,98155.59
2018-07-17T13:57:11.367Z,98159.78
2018-07-17T13:59:42.255Z,98165.25
2018-07-17T14:02:11.199Z,98162.16
2018-07-17T14:04:40.162Z,98168.96
2018-07-17T14:07:08.954Z,98169.70
2018-07-17T14:09:37.753Z,98174.31
2018-07-17T14:12:06.678Z,98176.63
2018-07-17T14:14:36.474Z,98176.27
2018-07-17T14:17:06.744Z,98180.55
2018-07-17T14:19:35.802Z,98178.13
2018-07-17T14:22:04.815Z,98181.11
2018-07-17T14:24:34.016Z,98172.45
2018-07-17T14:27:04.117Z,98182.69
2018-07-17T14:29:35.870Z,98189.92
2018-07-17T14:32:05.718Z,98184.64
2018-07-17T14:34:34.658Z,98193.55
2018-07-17T14:37:03.752Z,98191.29
2018-07-17T14:39:32.523Z,98191.45
2018-07-17T14:42:01.386Z,98186.29
2018-07-17T14:44:30.062Z,98190.14
2018-07-17T14:46:58.787Z,98192.69
2018-07-17T14:49:28.265Z,98183.42
2018-07-17T14:51:57.008Z,98196.86
2018-07-17T14:54:25.932Z,98190.50
2018-07-17T14:56:54.973Z,98199.86
2018-07-17T14:59:24.056Z,98181.09
2018-07-17T15:01:52.796Z,98193.80
2018-07-17T15:04:21.580Z,98203.11
2018-07-17T15:06:50.267Z,98199.73
2018-07-17T15:09:19.067Z,98189.90
2018-07-17T15:11:48.338Z,98193.53
2018-07-17T15:14:17.148Z,98180.08
2018-07-17T15:16:46.058Z,98179.59
2018-07-17T15:19:14.716Z,98185.83
2018-07-17T15:21:43.446Z,98180.58
2018-07-17T15:24:12.269Z,98182.25
2018-07-17T15:26:40.937Z,98175.34
2018-07-17T15:29:09.720Z,98169.59
2018-07-17T15:31:38.512Z,98171.82
2018-07-17T15:34:07.355Z,98176.27
2018-07-17T15:36:36.558Z,98168.53
2018-07-17T15:39:08.075Z,98160.02
2018-07-17T15:41:36.980Z,98161.55
2018-07-17T15:44:05.915Z,98165.06
2018-07-17T15:46:34.836Z,98167.69
2018-07-17T15:49:03.564Z,98170.98
2018-07-17T15:51:32.265Z,98171.00
2018-07-17T15:54:01.256Z,98169.88
2018-07-17T15:56:29.816Z,98175.09
2018-07-17T15:58:58.505Z,98170.92
2018-07-17T16:01:27.142Z,98168.99
2018-07-17T16:03:55.833Z,98165.70
2018-07-17T16:06:24.493Z,98171.31
2018-07-17T16:08:53.236Z,98170.75
2018-07-17T16:11:21.818Z,98174.23
2018-07-17T16:13:50.596Z,98173.61
2018-07-17T16:16:19.140Z,98169.32
2018-07-17T16:18:47.693Z,98163.16
2018-07-17T16:21:16.495Z,98157.37
2018-07-17T16:23:45.060Z,98159.62
2018-07-17T16:26:13.900Z,98157.46
2018-07-17T16:28:42.627Z,98152.97
2018-07-17T16:31:11.226Z,98153.38
2018-07-17T16:33:39.977Z,98153.38
2018-07-17T16:36:08.737Z,98150.30
2018-07-17T16:38:37.449Z,98152.34
2018-07-17T16:41:06.264Z,98149.50
2018-07-17T16:43:34.977Z,98154.88
2018-07-17T16:46:03.644Z,98147.73
2018-07-17T16:48:32.441Z,98149.91
2018-07-17T16:51:01.143Z,98145.62
2018-07-17T16:53:29.942Z,98145.23
2018-07-17T16:55:58.829Z,98150.13
2018-07-17T16:58:27.416Z,98152.90
2018-07-17T17:00:56.129Z,98153.86
2018-07-17T17:03:24.917Z,98156.58
2018-07-17T17:05:53.571Z,98157.36
2018-07-17T17:08:22.305Z,98148.97
2018-07-17T17:10:50.957Z,98153.73
2018-07-17T17:13:19.763Z,98154.64
2018-07-17T17:15:49.593Z,98153.67
2018-07-17T17:18:18.396Z,98157.77
2018-07-17T17:20:47.079Z,98159.05
2018-07-17T17:23:15.887Z,98163.77
2018-07-17T17:25:44.835Z,98163.55
2018-07-17T17:28:13.547Z,98159.75
2018-07-17T17:30:42.434Z,98160.11
2018-07-17T17:33:11.730Z,98159.92
2018-07-17T17:35:40.603Z,98163.36
2018-07-17T17:38:09.368Z,98165.28
2018-07-17T17:40:38.277Z,98161.17
2018-07-17T17:43:07.065Z,98163.06
2018-07-17T17:45:35.914Z,98170.08
2018-07-17T17:48:04.748Z,98165.54
2018-07-17T17:50:33.525Z,98165.16
2018-07-17T17:53:02.404Z,98170.80
2018-07-17T17:55:31.041Z,98170.30
2018-07-17T17:57:59.799Z,98168.36
2018-07-17T18:00:29.536Z,98168.12
2018-07-17T18:03:02.597Z,98173.56
2018-07-17T18:05:30.968Z,98172.37
2018-07-17T18:07:59.394Z,98174.94
2018-07-17T18:10:27.634Z,98181.13
2018-07-17T18:12:56.559Z,98179.45
2018-07-17T18:15:26.944Z,98178.80
2018-07-17T18:17:56.295Z,98179.68
2018-07-17T18:20:24.712Z,98178.85
2018-07-17T18:22:53.087Z,98194.13
2018-07-17T18:25:21.618Z,98194.25
2018-07-17T18:27:50.139Z,98197.45
2018-07-17T18:30:18.582Z,98206.38
2018-07-17T18:32:46.919Z,98209.29
2018-07-17T18:35:15.324Z,98210.75
2018-07-17T18:37:43.697Z,98206.17
2018-07-17T18:40:12.270Z,98207.92
2018-07-17T18:42:40.594Z,98219.98
2018-07-17T18:45:15.796Z,98213.14
2018-07-17T18:47:44.158Z,98223.19
2018-07-17T18:50:12.864Z,98229.05
2018-07-17T18:52:40.851Z,98232.73
2018-07-17T18:55:09.145Z,98236.18
2018-07-17T18:57:37.458Z,98235.72
2018-07-17T19:00:06.267Z,98246.27
2018-07-17T19:02:34.689Z,98250.42
2018-07-17T19:05:03.058Z,98251.91
2018-07-17T19:07:31.726Z,98254.00
2018-07-17T19:10:00.257Z,98257.34
2018-07-17T19:12:28.599Z,98265.70
2018-07-17T19:14:57.763Z,98268.86
2018-07-17T19:17:26.029Z,98279.16
2018-07-17T19:19:54.479Z,98276.17
2018-07-17T19:22:23.450Z,98289.44
2018-07-17T19:24:51.867Z,98281.71
2018-07-17T19:27:20.470Z,98283.91
2018-07-17T19:29:49.654Z,98284.11
2018-07-17T19:32:18.248Z,98285.47
2018-07-17T19:34:47.854Z,98285.65
2018-07-17T19:37:16.229Z,98291.83
2018-07-17T19:39:44.731Z,98296.86
2018-07-17T19:42:13.090Z,98295.02
2018-07-17T19:44:41.608Z,98292.81
2018-07-17T19:47:10.382Z,98287.90
2018-07-17T19:49:38.818Z,98292.56
2018-07-17T19:52:07.355Z,98290.83
2018-07-17T19:54:35.710Z,98287.12
2018-07-17T19:57:04.174Z,98285.95
2018-07-17T19:59:32.616Z,98292.13
2018-07-17T20:02:01.105Z,98290.96
2018-07-17T20:04:29.504Z,98291.75
2018-07-17T20:06:57.915Z,98290.23
2018-07-17T20:09:26.369Z,98299.64
2018-07-17T20:11:54.895Z,98293.10
2018-07-17T20:14:23.284Z,98308.02
2018-07-17T20:16:51.779Z,98303.62
2018-07-17T20:19:20.146Z,98297.02
2018-07-17T20:21:48.758Z,98300.16
2018-07-17T20:24:17.357Z,98302.92
2018-07-17T20:26:45.795Z,98298.17
2018-07-17T20:29:14.127Z,98299.36
2018-07-17T20:31:42.535Z,98295.83
2018-07-17T20:34:10.891Z,98306.88
2018-07-17T20:36:41.414Z,98304.00
2018-07-17T20:39:19.518Z,98301.37
2018-07-17T20:41:48.178Z,98305.80
2018-07-17T20:44:16.880Z,98309.19
2018-07-17T20:46:45.516Z,98308.30
2018-07-17T20:49:13.815Z,98317.39
2018-07-17T20:51:42.304Z,98319.28
2018-07-17T20:54:11.351Z,98315.14
2018-07-17T20:56:39.781Z,98318.84
2018-07-17T20:59:08.119Z,98325.20
2018-07-17T21:01:36.578Z,98316.84
2018-07-17T21:04:05.061Z,98318.53
2018-07-17T21:06:33.424Z,98322.72
2018-07-17T21:09:01.758Z,98317.59
2018-07-17T21:11:30.954Z,98317.62
2018-07-17T21:14:00.216Z,98315.13
2018-07-17T21:16:29.007Z,98319.32
2018-07-17T21:18:57.336Z,98322.25
2018-07-17T21:21:25.646Z,98322.33
2018-07-17T21:23:53.911Z,98330.98
2018-07-17T21:26:22.223Z,98333.37
2018-07-17T21:28:50.774Z,98340.43
2018-07-17T21:31:20.028Z,98342.50
2018-07-17T21:33:48.412Z,98348.99
2018-07-17T21:36:16.680Z,98358.11
2018-07-17T21:38:46.943Z,98357.56
2018-07-17T21:41:15.438Z,98362.22
2018-07-17T21:43:48.552Z,98354.52
2018-07-17T21:46:21.302Z,98362.73
2018-07-17T21:48:50.524Z,98354.80
2018-07-17T21:51:19.715Z,98346.42
2018-07-17T21:53:48.741Z,98344.89
2018-07-17T21:56:17.200Z,98350.09
2018-07-17T21:58:45.740Z,98349.89
2018-07-17T22:01:15.067Z,98344.84
2018-07-17T22:03:45.350Z,98348.19
2018-07-17T22:06:13.626Z,98349.91
2018-07-17T22:08:42.204Z,98347.39
2018-07-17T22:11:10.768Z,98336.41
2018-07-17T22:13:39.001Z,98332.20
2018-07-17T22:16:07.376Z,98327.33
2018-07-17T22:18:35.769Z,98333.23
2018-07-17T22:21:04.050Z,98331.73
2018-07-17T22:23:32.476Z,98335.66
2018-07-17T22:26:01.140Z,98338.41
2018-07-17T22:28:29.598Z,98338.91
2018-07-17T22:30:57.883Z,98339.94
2018-07-17T22:33:26.182Z,98337.43
2018-07-17T22:35:54.507Z,98336.11
2018-07-17T22:38:22.846Z,98333.82
2018-07-17T22:40:51.172Z,98329.62
2018-07-17T22:43:19.538Z,98329.93
2018-07-17T22:45:47.786Z,98340.13
2018-07-17T22:48:16.113Z,98335.23
2018-07-17T22:50:44.416Z,98344.45
2018-07-17T22:53:12.773Z,98347.19
2018-07-17T22:55:41.050Z,98343.87
2018-07-17T22:58:09.419Z,98338.44
2018-07-17T23:00:37.760Z,98336.41
2018-07-17T23:03:06.677Z,98334.20
2018-07-17T23:05:35.008Z,98336.95
2018-07-17T23:08:03.301Z,98342.34
2018-07-17T23:10:31.609Z,98348.55
2018-07-17T23:12:59.993Z,98347.68
2018-07-17T23:15:28.318Z,98347.44
2018-07-17T23:17:56.608Z,98352.11
2018-07-17T23:20:24.918Z,98355.52
2018-07-17T23:22:59.387Z,98357.20
2018-07-17T23:25:28.960Z,98354.44
2018-07-17T23:27:58.056Z,98362.39
2018-07-17T23:30:26.381Z,98371.98
2018-07-17T23:32:54.770Z,98376.03
2018-07-17T23:35:24.208Z,98375.41
2018-07-17T23:37:52.989Z,98376.66
2018-07-17T23:40:21.847Z,98380.15
2018-07-17T23:42:50.263Z,98383.13
2018-07-17T23:45:18.949Z,98380.54
2018-07-17T23:47:47.990Z,98380.54
2018-07-17T23:50:16.233Z,98381.31
2018-07-17T23:52:44.625Z,98388.09
2018-07-17T23:55:13.059Z,98386.26
2018-07-17T23:57:41.287Z,98385.64
